首页
METAR-TAF:

METAR-TAF

机场 :

Spangdahlem, 德国

纬度: 49-59N, 经度: 006-42E, 海拔: 365米

当前天气观测

该预报发布于17分钟前的18:56 UTC
风速10节,风向西南
温度 4°C
湿度 75%
气压 1027 hPa
能见度10公里或以上
少量云层高于3000英尺
多云层高于12000英尺
多云层高于15000英尺

METAR: ETAD 211856Z AUTO 22010KT 9999 FEW030 BKN120 BKN150 04/00 A3034 RMK AO2 SLP282 T00400000 $

时间: 20:13 (19:13 UTC)

预报

该预报发布于5小时和13分钟前的14:00 UTC
预报有效从21日的 14点(UTC)到 22日的 19点(UTC)
风速10节,风向西转西南,有时为15节阵风
能见度10公里或以上
多云层高于3000英尺
多云层高于10000英尺
成为
从 22日的 02点(UTC)到 22日的 03点(UTC)
风速12节,风向西南,有时为20节阵风
能见度10公里或以上
多云层高于800英尺
阴天层高于1000英尺
成为
从 22日的 08点(UTC)到 22日的 09点(UTC)
风速15节,风向西南,有时为30节阵风
能见度10公里或以上
多云层高于1000英尺
阴天层高于2000英尺
成为
从 22日的 17点(UTC)到 22日的 18点(UTC)
风速20节,风向西南,有时为35节阵风
能見度: 6000
多云层高于800英尺
阴天层高于1000英尺
阵雨

TAF: ETAD 211400Z 2114/2219 24010G15KT 9999 BKN030 BKN100 QNH3029INS BECMG 2202/2203 23012G20KT 9999 BKN008 OVC010 QNH3025INS BECMG 2208/2209 23015G30KT 9999 BKN010 OVC020 510002 QNH3022INS BECMG 2217/2218 23020G35KT 6000 SHRA BKN008 OVC010 520003 QNH3024INS TX06/2114Z TN02/2208Z

超过4000个机场的气象观测和天气预报(METAR&TAF报告)。

可查询的气象台以黄色和红色小点在地图上表示。

将鼠标移到小点上方,可查看气象台名称。

然后点击查看天气观测和预报。

如需切换地图:点击带黑十字的绿色按钮放大地图;点击带横线的绿色按钮缩小地图;或者点击绿色箭头查看邻近地区的地图。


METAR-TAF: